Time;durP1;ratioP1;P1;durP2;ratioP2;P2;SDS_P1;SDS_P2;PMS_P1;PMS_P2;Temp;Humidity;BMP_temperature;BMP_pressure;BME280_temperature;BME280_humidity;BME280_pressure;Samples;Min_cycle;Max_cycle;Signal;HPM_P1;HPM_P2
2022/12/08 00:01:25;;;;;;;2.30;1.17;;;3.80;92.50;;;;;;5058693;28;20134;-77
2022/12/08 00:03:51;;;;;;;1.98;1.10;;;3.80;92.50;;;;;;5093039;28;20093;-77
2022/12/08 00:09:22;;;;;;;1.92;1.15;;;3.80;92.50;;;;;;5064111;28;20039;-77
2022/12/08 00:11:54;;;;;;;1.83;1.00;;;3.80;92.50;;;;;;5076966;28;20044;-77
2022/12/08 00:14:26;;;;;;;1.52;1.10;;;3.80;92.40;;;;;;5074870;28;20093;-77
2022/12/08 00:16:53;;;;;;;1.20;1.00;;;3.80;92.40;;;;;;5093962;28;20380;-77
2022/12/08 00:19:19;;;;;;;2.58;1.30;;;3.80;92.40;;;;;;5094735;28;20044;-77
2022/12/08 00:21:45;;;;;;;1.45;1.20;;;3.80;92.40;;;;;;5093481;28;20131;-77
2022/12/08 00:24:10;;;;;;;2.25;1.10;;;3.80;92.40;;;;;;5094739;28;20090;-77
2022/12/08 00:26:36;;;;;;;1.88;1.27;;;3.90;92.40;;;;;;5093989;28;20085;-77
2022/12/08 00:29:02;;;;;;;1.80;1.23;;;3.90;92.40;;;;;;5092950;28;20058;-77
2022/12/08 00:31:28;;;;;;;2.42;1.33;;;3.80;92.40;;;;;;5075049;28;20048;-77
2022/12/08 00:33:53;;;;;;;1.42;1.05;;;3.90;92.40;;;;;;5094425;28;20541;-76
2022/12/08 00:36:19;;;;;;;1.30;1.08;;;3.90;92.40;;;;;;5094631;28;20480;-76
2022/12/08 00:38:47;;;;;;;2.53;1.00;;;3.90;92.40;;;;;;5097316;28;20067;-76
2022/12/08 00:41:15;;;;;;;2.67;1.52;;;3.90;92.40;;;;;;5079981;28;20044;-77
2022/12/08 00:43:41;;;;;;;2.05;1.23;;;3.90;92.40;;;;;;5098363;28;20498;-77
2022/12/08 00:46:07;;;;;;;1.45;1.05;;;3.90;92.40;;;;;;5079689;28;20044;-77
2022/12/08 00:48:33;;;;;;;1.48;0.90;;;3.90;92.40;;;;;;5079998;28;20514;-77
2022/12/08 00:50:59;;;;;;;1.98;1.15;;;3.90;92.40;;;;;;5100404;28;20036;-76
2022/12/08 00:53:24;;;;;;;2.75;1.40;;;3.90;92.40;;;;;;5080433;28;20404;-78
2022/12/08 00:55:50;;;;;;;1.98;1.08;;;4.00;92.40;;;;;;5081533;28;20192;-77
2022/12/08 00:58:16;;;;;;;1.80;1.13;;;4.00;92.40;;;;;;5046394;28;20042;-77
2022/12/08 01:00:42;;;;;;;2.58;1.50;;;4.10;92.40;;;;;;5085720;28;20040;-77
2022/12/08 01:03:10;;;;;;;2.17;1.30;;;4.00;92.40;;;;;;5103267;28;20058;-77
2022/12/08 01:05:35;;;;;;;2.03;1.30;;;4.10;92.40;;;;;;5085905;28;20531;-77
2022/12/08 01:08:04;;;;;;;2.30;1.42;;;4.10;92.30;;;;;;5101091;28;20083;-77
2022/12/08 01:10:29;;;;;;;1.35;1.00;;;4.20;92.30;;;;;;5079670;28;20052;-77
2022/12/08 01:12:55;;;;;;;1.67;1.20;;;4.10;92.30;;;;;;5102918;28;20071;-77
2022/12/08 01:15:20;;;;;;;1.80;1.10;;;4.10;92.30;;;;;;5084962;28;20074;-77
2022/12/08 01:17:46;;;;;;;1.70;0.85;;;4.10;92.30;;;;;;5100126;28;20496;-77
2022/12/08 01:20:12;;;;;;;1.42;1.17;;;4.10;92.30;;;;;;5100370;28;20059;-77
2022/12/08 01:22:37;;;;;;;1.88;1.00;;;4.20;92.30;;;;;;5101680;28;20119;-77
2022/12/08 01:25:03;;;;;;;1.48;1.13;;;4.10;92.30;;;;;;5083700;28;20040;-77
2022/12/08 01:27:29;;;;;;;1.50;0.98;;;4.10;92.30;;;;;;5084956;28;20075;-77
2022/12/08 01:29:54;;;;;;;2.08;1.10;;;4.20;92.40;;;;;;5085665;28;20140;-76
2022/12/08 01:32:20;;;;;;;1.73;1.10;;;4.20;92.40;;;;;;5100980;28;20222;-77
2022/12/08 01:34:46;;;;;;;2.17;1.15;;;4.20;92.40;;;;;;5100513;28;20093;-77
2022/12/08 01:37:11;;;;;;;1.23;1.10;;;4.20;92.40;;;;;;5101843;28;20036;-77
2022/12/08 01:39:37;;;;;;;2.92;1.15;;;4.20;92.40;;;;;;5083613;28;20404;-77
2022/12/08 01:42:03;;;;;;;2.80;1.30;;;4.20;92.40;;;;;;5100390;28;20062;-76
2022/12/08 01:44:51;;;;;;;2.17;1.30;;;4.30;92.70;;;;;;5100321;28;20032;-77
2022/12/08 01:47:17;;;;;;;2.13;1.25;;;4.20;92.40;;;;;;5080835;28;20036;-77
2022/12/08 01:49:43;;;;;;;2.03;1.38;;;4.30;92.40;;;;;;5103552;28;20035;-77
2022/12/08 01:52:19;;;;;;;2.45;1.52;;;4.30;92.40;;;;;;5082511;28;20504;-77
2022/12/08 01:54:56;;;;;;;4.00;2.00;;;4.30;92.40;;;;;;5080817;28;20052;-77
2022/12/08 01:57:32;;;;;;;3.47;1.70;;;4.20;92.40;;;;;;5066231;28;20089;-77
2022/12/08 02:00:05;;;;;;;4.30;1.63;;;4.20;92.40;;;;;;5082440;28;20118;-77
2022/12/08 02:02:40;;;;;;;3.53;1.67;;;4.20;92.40;;;;;;5078993;28;20036;-77
2022/12/08 02:05:07;;;;;;;2.78;1.70;;;4.20;92.40;;;;;;5077070;28;20067;-77
2022/12/08 02:07:34;;;;;;;3.17;1.70;;;4.20;92.50;;;;;;5099263;28;20090;-78
2022/12/08 02:10:00;;;;;;;3.13;1.50;;;4.20;92.50;;;;;;5098525;28;20108;-77
2022/12/08 02:12:26;;;;;;;2.72;1.50;;;4.20;92.50;;;;;;5099153;28;20472;-77
2022/12/08 02:14:52;;;;;;;2.05;1.45;;;4.20;92.50;;;;;;5082285;28;20048;-77
2022/12/08 02:17:35;;;;;;;1.98;1.27;;;4.20;92.50;;;;;;5082727;28;20096;-77
2022/12/08 02:20:22;;;;;;;1.83;1.20;;;4.20;92.50;;;;;;5062964;28;20047;-78
2022/12/08 02:23:06;;;;;;;2.63;1.63;;;4.20;92.50;;;;;;5095334;28;20032;-77
2022/12/08 02:26:10;;;;;;;2.10;1.50;;;4.20;92.50;;;;;;5098451;28;20032;-77
2022/12/08 02:29:00;;;;;;;2.13;1.48;;;4.20;92.60;;;;;;5097127;28;20058;-77
2022/12/08 02:31:47;;;;;;;3.20;1.80;;;4.20;92.60;;;;;;5097047;28;20126;-77
2022/12/08 02:34:28;;;;;;;2.65;1.38;;;4.20;92.50;;;;;;5099891;28;20047;-77
2022/12/08 02:37:10;;;;;;;3.15;1.45;;;4.30;92.60;;;;;;5099061;28;20044;-77
2022/12/08 02:39:58;;;;;;;2.65;1.40;;;4.20;92.50;;;;;;5101029;28;20044;-77
2022/12/08 02:42:37;;;;;;;2.92;1.42;;;4.20;92.50;;;;;;5100363;28;20066;-77
2022/12/08 02:45:12;;;;;;;3.10;1.52;;;4.20;92.50;;;;;;5099483;28;20483;-77
2022/12/08 02:47:39;;;;;;;2.70;1.55;;;4.20;92.50;;;;;;5080432;28;20498;-77
2022/12/08 02:50:06;;;;;;;2.70;1.40;;;4.20;92.50;;;;;;5080034;28;20126;-77
2022/12/08 02:52:39;;;;;;;2.38;1.30;;;4.20;92.50;;;;;;5066518;28;20044;-77
2022/12/08 02:55:10;;;;;;;2.05;1.08;;;4.30;92.60;;;;;;5099343;28;20063;-77
2022/12/08 02:58:15;;;;;;;1.90;1.20;;;4.20;92.60;;;;;;5081716;28;20126;-77
2022/12/08 03:01:02;;;;;;;2.55;1.30;;;4.20;92.60;;;;;;5077135;28;20028;-77
2022/12/08 03:03:40;;;;;;;1.63;1.10;;;4.20;92.60;;;;;;5102800;28;20052;-76
2022/12/08 03:06:28;;;;;;;1.45;0.93;;;4.20;92.60;;;;;;5087690;28;20063;-77
2022/12/08 03:09:18;;;;;;;1.90;1.05;;;4.20;92.60;;;;;;5086491;28;20039;-77
2022/12/08 03:11:56;;;;;;;1.48;1.05;;;4.20;92.60;;;;;;5105453;28;20052;-77
2022/12/08 03:14:22;;;;;;;1.10;0.80;;;4.30;92.90;;;;;;5104508;28;20121;-76
2022/12/08 03:16:51;;;;;;;1.75;0.90;;;4.30;92.60;;;;;;5105233;28;20070;-77
2022/12/08 03:19:22;;;;;;;1.15;0.90;;;4.30;92.60;;;;;;5106633;28;20078;-77
2022/12/08 03:21:51;;;;;;;1.10;0.80;;;4.20;92.60;;;;;;5089887;28;20040;-77
2022/12/08 03:24:21;;;;;;;2.00;1.10;;;4.30;92.70;;;;;;5072654;28;20051;-76
2022/12/08 03:26:57;;;;;;;1.25;0.90;;;4.30;92.70;;;;;;5112368;28;20085;-77
2022/12/08 03:29:23;;;;;;;1.85;1.05;;;4.30;92.70;;;;;;5110552;28;20048;-77
2022/12/08 03:31:54;;;;;;;1.67;1.08;;;4.40;92.70;;;;;;5093616;28;20019;-77
2022/12/08 03:34:24;;;;;;;2.20;1.10;;;4.30;92.60;;;;;;5072749;28;20044;-77
2022/12/08 03:36:49;;;;;;;1.75;1.05;;;4.30;92.60;;;;;;5106701;28;20032;-77
2022/12/08 03:39:15;;;;;;;3.72;1.17;;;4.30;92.60;;;;;;5090835;28;20487;-77
2022/12/08 03:41:41;;;;;;;0.98;0.80;;;4.30;92.60;;;;;;5074747;28;20586;-76
2022/12/08 03:44:07;;;;;;;1.70;1.20;;;4.30;92.60;;;;;;5110247;28;20063;-77
2022/12/08 03:46:32;;;;;;;2.20;1.00;;;4.30;92.60;;;;;;5094236;28;20044;-77
2022/12/08 03:48:58;;;;;;;2.95;1.20;;;4.30;92.70;;;;;;5111200;28;20050;-77
2022/12/08 03:51:24;;;;;;;2.30;1.20;;;4.30;92.70;;;;;;5094050;28;20043;-77
2022/12/08 03:53:50;;;;;;;1.42;1.05;;;4.30;92.70;;;;;;5094641;28;20055;-77
2022/12/08 03:56:26;;;;;;;1.50;1.05;;;4.30;92.70;;;;;;5095355;28;20055;-77
2022/12/08 03:58:53;;;;;;;1.15;0.93;;;4.30;92.70;;;;;;5110941;28;20047;-77
2022/12/08 04:01:19;;;;;;;2.40;1.20;;;4.30;92.70;;;;;;5092124;28;20032;-77
2022/12/08 04:03:44;;;;;;;1.35;0.95;;;4.30;92.70;;;;;;5109132;28;20040;-77
2022/12/08 04:06:10;;;;;;;1.60;1.02;;;4.30;92.70;;;;;;5075812;28;20065;-77
2022/12/08 04:08:36;;;;;;;0.75;0.75;;;4.30;92.70;;;;;;5109390;28;20058;-77
2022/12/08 04:11:01;;;;;;;1.67;1.20;;;4.20;92.70;;;;;;5110736;28;20038;-76
2022/12/08 04:13:27;;;;;;;1.77;1.00;;;4.20;92.70;;;;;;5092059;28;20104;-77
2022/12/08 04:15:53;;;;;;;1.42;1.02;;;4.20;92.70;;;;;;5110864;28;20138;-77
2022/12/08 04:18:19;;;;;;;0.98;0.90;;;4.20;92.70;;;;;;5075709;28;20039;-77
2022/12/08 04:20:45;;;;;;;1.25;0.90;;;4.30;92.70;;;;;;5110957;28;20036;-77
2022/12/08 04:23:11;;;;;;;1.23;0.90;;;4.30;92.70;;;;;;5093006;28;20140;-77
2022/12/08 04:25:37;;;;;;;1.73;0.90;;;4.20;92.70;;;;;;5114820;28;20045;-77
2022/12/08 04:28:04;;;;;;;0.90;0.60;;;4.20;92.70;;;;;;5112597;28;20020;-77
2022/12/08 04:30:31;;;;;;;0.65;0.60;;;4.20;92.70;;;;;;5092402;28;20105;-77
2022/12/08 04:32:57;;;;;;;0.80;0.60;;;4.20;92.70;;;;;;5111835;28;20042;-77
2022/12/08 04:35:23;;;;;;;1.08;0.80;;;4.30;92.80;;;;;;5109025;28;20040;-77
2022/12/08 04:37:49;;;;;;;0.82;0.55;;;4.20;92.80;;;;;;5087762;28;20040;-77
2022/12/08 04:40:14;;;;;;;0.50;0.50;;;4.20;92.80;;;;;;5109508;28;20466;-77
2022/12/08 04:42:41;;;;;;;0.55;0.43;;;4.20;92.80;;;;;;5109248;28;20055;-77
2022/12/08 04:45:07;;;;;;;0.38;0.38;;;4.20;92.80;;;;;;5112056;28;20048;-77
2022/12/08 04:47:33;;;;;;;0.73;0.50;;;4.30;92.80;;;;;;5108540;28;20040;-77
2022/12/08 04:49:58;;;;;;;1.20;0.70;;;4.20;92.80;;;;;;5091909;28;20092;-77
2022/12/08 04:52:24;;;;;;;0.50;0.50;;;4.20;92.80;;;;;;5111059;28;20062;-76
2022/12/08 04:54:49;;;;;;;0.95;0.80;;;4.10;92.80;;;;;;5093572;28;20060;-77
2022/12/08 04:57:15;;;;;;;1.25;0.80;;;4.20;92.80;;;;;;5095138;28;20040;-77
2022/12/08 04:59:41;;;;;;;1.00;0.60;;;4.20;92.80;;;;;;5091933;28;20058;-77
2022/12/08 05:02:06;;;;;;;0.90;0.60;;;4.30;92.80;;;;;;5091696;28;20070;-77
2022/12/08 05:04:32;;;;;;;0.93;0.70;;;4.20;92.80;;;;;;5088965;28;20488;-77
2022/12/08 05:06:58;;;;;;;0.90;0.60;;;4.20;92.80;;;;;;5093167;28;20052;-77
2022/12/08 05:09:23;;;;;;;0.40;0.40;;;4.20;92.80;;;;;;5108379;28;20139;-77
2022/12/08 05:11:49;;;;;;;0.98;0.63;;;4.20;92.80;;;;;;5107681;28;20578;-77
2022/12/08 05:14:16;;;;;;;0.88;0.75;;;4.20;92.80;;;;;;5106061;28;20036;-77
2022/12/08 05:16:44;;;;;;;0.93;0.55;;;4.20;92.80;;;;;;5112317;28;20048;-77
2022/12/08 05:19:10;;;;;;;0.60;0.50;;;4.20;92.90;;;;;;5113383;28;20034;-77
2022/12/08 05:21:36;;;;;;;0.60;0.50;;;4.20;92.90;;;;;;5115457;28;20032;-77
2022/12/08 05:24:02;;;;;;;0.45;0.45;;;4.20;92.90;;;;;;5115685;28;20043;-76
2022/12/08 05:26:27;;;;;;;0.50;0.50;;;4.20;92.90;;;;;;5084513;28;20040;-77
2022/12/08 05:28:53;;;;;;;0.63;0.60;;;4.20;92.90;;;;;;5119354;28;20049;-76
2022/12/08 05:31:18;;;;;;;0.93;0.63;;;4.20;92.90;;;;;;5119534;28;20042;-77
2022/12/08 05:33:45;;;;;;;1.27;0.95;;;4.30;92.90;;;;;;5098457;28;20044;-77
2022/12/08 05:36:13;;;;;;;0.50;0.50;;;4.20;92.90;;;;;;5099477;28;20044;-77
2022/12/08 05:38:39;;;;;;;0.88;0.68;;;4.20;92.90;;;;;;5084480;28;20040;-76
2022/12/08 05:41:06;;;;;;;0.55;0.55;;;4.20;92.90;;;;;;5119351;28;20028;-78
2022/12/08 05:43:32;;;;;;;0.43;0.43;;;4.20;92.90;;;;;;5117568;28;20056;-76
2022/12/08 05:45:58;;;;;;;0.65;0.63;;;4.20;92.90;;;;;;5118247;28;20039;-77
2022/12/08 05:48:24;;;;;;;0.90;0.60;;;4.10;92.90;;;;;;5098662;28;20038;-77
2022/12/08 05:50:50;;;;;;;0.55;0.55;;;4.20;92.90;;;;;;5115889;28;20111;-77
2022/12/08 05:53:17;;;;;;;0.50;0.50;;;4.10;92.90;;;;;;5081110;28;20103;-77
2022/12/08 05:55:43;;;;;;;0.43;0.43;;;4.10;92.90;;;;;;5116004;28;20048;-77
2022/12/08 05:58:14;;;;;;;0.45;0.45;;;4.10;92.90;;;;;;5118794;28;20091;-77
2022/12/08 06:00:41;;;;;;;0.30;0.30;;;4.00;92.90;;;;;;5117611;28;20074;-77
2022/12/08 06:03:07;;;;;;;0.30;0.30;;;4.00;92.90;;;;;;5083984;28;20029;-77
2022/12/08 06:05:36;;;;;;;0.30;0.20;;;3.90;92.90;;;;;;5119130;28;20059;-77
2022/12/08 06:08:02;;;;;;;0.28;0.28;;;4.00;93.00;;;;;;5085621;28;20096;-77
2022/12/08 06:10:27;;;;;;;0.25;0.22;;;3.90;93.00;;;;;;5114564;28;20036;-78
2022/12/08 06:12:53;;;;;;;0.13;0.13;;;4.00;93.00;;;;;;5098041;28;20103;-78
2022/12/08 06:15:19;;;;;;;0.20;0.20;;;3.90;93.00;;;;;;5115147;28;20052;-79
2022/12/08 06:17:44;;;;;;;0.20;0.20;;;3.90;93.00;;;;;;5083225;28;20020;-78
2022/12/08 06:20:10;;;;;;;0.10;0.10;;;3.90;93.00;;;;;;5116462;28;20020;-78
2022/12/08 06:22:36;;;;;;;0.10;0.10;;;3.90;93.00;;;;;;5116489;28;20050;-78
2022/12/08 06:25:02;;;;;;;0.32;0.20;;;3.90;93.00;;;;;;5116439;28;20028;-78
2022/12/08 06:27:28;;;;;;;0.38;0.30;;;4.00;93.00;;;;;;5099047;28;20151;-78
2022/12/08 06:29:53;;;;;;;0.20;0.20;;;3.90;93.00;;;;;;5097231;28;20024;-78
2022/12/08 06:32:19;;;;;;;0.55;0.28;;;3.90;93.00;;;;;;5096650;28;20074;-78
2022/12/08 06:34:45;;;;;;;0.10;0.10;;;3.90;93.00;;;;;;5115178;28;20048;-78
2022/12/08 06:37:10;;;;;;;0.30;0.20;;;3.90;93.00;;;;;;5097050;28;20076;-78
2022/12/08 06:39:36;;;;;;;1.10;0.20;;;3.90;93.00;;;;;;5096779;28;20048;-78
2022/12/08 06:44:47;;;;;;;0.28;0.28;;;3.90;93.00;;;;;;5100858;28;20060;-78
2022/12/08 06:47:13;;;;;;;0.10;0.10;;;3.90;93.00;;;;;;5115916;28;20043;-78
2022/12/08 06:49:39;;;;;;;0.17;0.17;;;3.90;93.00;;;;;;5116826;28;20032;-78
2022/12/08 06:52:05;;;;;;;0.10;0.10;;;3.90;93.00;;;;;;5117145;28;20028;-77
2022/12/08 06:54:30;;;;;;;0.10;0.10;;;3.90;93.00;;;;;;5112131;28;20043;-78
2022/12/08 06:56:56;;;;;;;0.17;0.17;;;3.90;93.00;;;;;;5115587;28;20048;-78
2022/12/08 06:59:24;;;;;;;0.20;0.20;;;3.90;93.00;;;;;;5115773;28;20028;-78
2022/12/08 07:01:50;;;;;;;0.20;0.20;;;3.90;93.00;;;;;;5097237;28;20464;-78
2022/12/08 07:04:16;;;;;;;0.20;0.20;;;3.90;93.00;;;;;;5095580;28;20036;-78
2022/12/08 07:06:42;;;;;;;0.20;0.20;;;4.00;93.00;;;;;;5116921;28;20049;-78
2022/12/08 07:09:08;;;;;;;0.88;0.20;;;3.90;93.00;;;;;;5112968;28;20044;-77
2022/12/08 07:11:33;;;;;;;0.13;0.10;;;3.90;93.00;;;;;;5113946;28;20040;-77
2022/12/08 07:13:59;;;;;;;0.20;0.20;;;3.90;93.00;;;;;;5100207;28;20092;-77
2022/12/08 07:16:24;;;;;;;0.45;0.20;;;3.90;93.00;;;;;;5081794;28;20070;-78
2022/12/08 07:18:50;;;;;;;0.20;0.20;;;3.90;93.10;;;;;;5115544;28;20103;-78
2022/12/08 07:21:16;;;;;;;0.22;0.20;;;3.90;93.10;;;;;;5114312;28;20508;-78
2022/12/08 07:23:45;;;;;;;0.32;0.20;;;3.90;93.00;;;;;;5096385;28;20036;-78
2022/12/08 07:26:11;;;;;;;0.20;0.20;;;3.90;93.10;;;;;;5113461;28;20059;-78
2022/12/08 07:28:39;;;;;;;0.20;0.20;;;3.90;93.10;;;;;;5115434;28;20048;-78
2022/12/08 07:31:05;;;;;;;0.40;0.32;;;3.90;93.10;;;;;;5115039;28;20083;-78
2022/12/08 07:33:32;;;;;;;0.20;0.20;;;3.80;93.00;;;;;;5116815;28;20028;-78
2022/12/08 07:36:00;;;;;;;0.32;0.30;;;3.80;93.10;;;;;;5092621;28;20056;-78
2022/12/08 07:38:27;;;;;;;0.45;0.30;;;3.80;93.10;;;;;;5093102;28;20477;-78
2022/12/08 07:42:04;;;;;;;0.20;0.20;;;3.80;93.10;;;;;;5112816;28;20079;-78
2022/12/08 09:00:56;;;;;;;0.15;0.15;;;3.60;93.00;;;;;;6098398;23;20033;-77
2022/12/08 09:03:35;;;;;;;0.10;0.10;;;3.50;92.90;;;;;;5990333;23;20060;-78
2022/12/08 09:06:03;;;;;;;0.10;0.10;;;3.60;93.00;;;;;;5991785;23;20020;-80
2022/12/08 09:08:39;;;;;;;0.10;0.10;;;3.60;93.00;;;;;;5988939;23;20015;-80
2022/12/08 09:11:25;;;;;;;0.10;0.10;;;3.60;93.00;;;;;;5985159;24;20027;-80
2022/12/08 09:14:52;;;;;;;0.10;0.10;;;3.60;93.00;;;;;;5959477;24;20023;-81
2022/12/08 09:17:57;;;;;;;0.15;0.15;;;3.70;93.00;;;;;;5954899;24;20025;-81
2022/12/08 09:21:21;;;;;;;0.10;0.10;;;3.70;93.00;;;;;;5914674;24;20099;-81
2022/12/08 09:40:34;;;;;;;0.43;0.38;;;3.80;92.80;;;;;;5900320;24;20074;-80
2022/12/08 09:44:19;;;;;;;0.63;0.40;;;3.80;92.80;;;;;;5945196;24;20073;-81
2022/12/08 09:47:23;;;;;;;;;;;3.90;92.80;;;;;;5957376;24;20017;-80
2022/12/08 09:54:36;;;;;;;0.57;0.32;;;3.80;92.70;;;;;;5939750;24;20027;-81
2022/12/08 10:16:46;;;;;;;0.15;0.15;;;3.90;92.70;;;;;;5758216;24;20336;-80
2022/12/08 10:19:21;;;;;;;0.45;0.20;;;3.90;92.80;;;;;;5684099;25;20107;-80
2022/12/08 10:26:36;;;;;;;0.20;0.20;;;4.00;92.90;;;;;;5681314;25;20044;-79
2022/12/08 10:34:12;;;;;;;0.60;0.30;;;4.00;92.80;;;;;;5660504;25;20052;-80
2022/12/08 10:51:20;;;;;;;0.17;0.17;;;4.10;92.80;;;;;;5627409;25;20026;-81
2022/12/08 10:53:54;;;;;;;0.32;0.30;;;4.10;92.70;;;;;;5643758;25;20022;-79
2022/12/08 10:57:07;;;;;;;0.50;0.40;;;4.10;92.70;;;;;;5638422;25;20022;-81
2022/12/08 11:00:08;;;;;;;0.30;0.30;;;4.20;92.80;;;;;;5614675;25;20022;-82
2022/12/08 11:14:53;;;;;;;0.45;0.40;;;4.20;92.70;;;;;;5690859;25;20351;-80
2022/12/08 11:22:10;;;;;;;0.35;0.28;;;4.30;92.70;;;;;;5788296;24;20818;-80
2022/12/08 11:24:36;;;;;;;0.75;0.50;;;4.30;92.70;;;;;;5786023;24;20058;-80
2022/12/08 11:27:05;;;;;;;0.95;0.55;;;4.30;92.70;;;;;;5790044;24;20019;-81
2022/12/08 11:29:33;;;;;;;0.63;0.50;;;4.20;92.70;;;;;;5788963;24;20024;-81
2022/12/08 11:32:03;;;;;;;1.08;0.50;;;4.30;92.70;;;;;;5763786;24;20532;-80
2022/12/08 11:34:52;;;;;;;0.90;0.47;;;4.40;92.80;;;;;;5763908;24;20106;-81
2022/12/08 11:37:34;;;;;;;0.82;0.60;;;4.40;92.70;;;;;;5763485;24;20019;-81
2022/12/08 11:40:03;;;;;;;;;;;4.40;92.70;;;;;;5783087;24;20034;-81
2022/12/08 11:42:36;;;;;;;0.50;0.40;;;4.50;92.80;;;;;;5846578;24;20287;-79
2022/12/08 11:49:40;;;;;;;0.40;0.40;;;4.40;92.70;;;;;;5859005;24;20062;-83
2022/12/08 12:24:53;;;;;;;1.00;0.73;;;4.40;92.60;;;;;;6005004;23;20517;-80
2022/12/08 12:56:08;;;;;;;0.63;0.40;;;4.30;92.60;;;;;;5754705;24;20052;-79
2022/12/08 13:08:01;;;;;;;0.15;0.10;;;4.30;92.60;;;;;;5976037;24;20080;-81
2022/12/08 13:22:15;;;;;;;0.13;0.13;;;4.20;92.50;;;;;;6033541;23;20102;-79
2022/12/08 13:24:54;;;;;;;0.75;0.45;;;4.20;92.60;;;;;;5997247;23;20053;-79
2022/12/08 13:28:04;;;;;;;0.10;0.10;;;4.20;92.60;;;;;;6016578;23;20471;-78
2022/12/08 13:31:40;;;;;;;0.20;0.20;;;4.10;92.50;;;;;;6103297;23;20018;-79
2022/12/08 13:34:53;;;;;;;1.30;0.20;;;4.20;92.60;;;;;;6102247;23;20022;-79
2022/12/08 13:38:02;;;;;;;0.20;0.20;;;4.20;92.60;;;;;;6045008;23;20166;-78
2022/12/08 13:40:43;;;;;;;0.30;0.20;;;4.20;92.50;;;;;;5940359;24;20025;-78
2022/12/08 13:44:01;;;;;;;0.20;0.15;;;4.30;92.50;;;;;;5937709;24;20021;-78
2022/12/08 16:18:28;;;;;;;0.30;0.30;;;3.00;92.90;;;;;;5679401;25;20032;-76
2022/12/08 16:20:54;;;;;;;0.40;0.40;;;3.10;92.90;;;;;;5659107;25;20165;-76
2022/12/08 16:23:20;;;;;;;0.40;0.40;;;3.10;92.90;;;;;;5685565;25;20485;-76
2022/12/08 16:25:45;;;;;;;0.43;0.43;;;3.10;92.90;;;;;;5686264;25;20021;-78
2022/12/08 16:28:11;;;;;;;0.63;0.52;;;3.00;92.90;;;;;;5660874;25;20013;-78
2022/12/08 16:30:37;;;;;;;0.40;0.40;;;3.00;92.90;;;;;;5686686;25;20012;-78
2022/12/08 16:33:03;;;;;;;0.60;0.50;;;3.00;92.90;;;;;;5719837;25;20016;-78
2022/12/08 16:35:29;;;;;;;0.65;0.55;;;3.00;92.90;;;;;;5759617;24;20038;-78
2022/12/08 16:37:55;;;;;;;0.57;0.57;;;3.10;92.90;;;;;;5820217;24;20102;-78
2022/12/08 16:40:21;;;;;;;0.70;0.60;;;3.00;92.90;;;;;;5837010;24;20371;-78
2022/12/08 16:42:48;;;;;;;1.15;0.80;;;3.00;92.90;;;;;;5923427;24;20081;-78
2022/12/08 16:45:22;;;;;;;0.57;0.52;;;3.10;92.90;;;;;;5923333;24;20032;-78
2022/12/08 16:47:52;;;;;;;0.73;0.57;;;3.00;92.90;;;;;;5925131;24;20032;-78
2022/12/08 16:50:20;;;;;;;0.50;0.50;;;3.00;92.90;;;;;;5977826;24;20457;-78
2022/12/08 16:52:47;;;;;;;0.55;0.55;;;3.00;92.90;;;;;;5954722;24;20437;-78
2022/12/08 16:55:18;;;;;;;1.17;0.77;;;3.00;93.20;;;;;;6022932;23;20033;-78
2022/12/08 16:57:45;;;;;;;1.80;0.68;;;2.90;92.90;;;;;;6095200;23;20002;-78
2022/12/08 17:00:14;;;;;;;1.20;0.68;;;2.90;92.90;;;;;;6095279;23;20010;-78
2022/12/08 17:02:40;;;;;;;0.80;0.60;;;2.90;92.90;;;;;;6094879;23;20491;-78
2022/12/08 17:05:07;;;;;;;0.50;0.47;;;2.90;92.90;;;;;;6069446;23;20045;-77
2022/12/08 17:07:34;;;;;;;1.35;0.60;;;2.90;92.90;;;;;;6096176;23;20022;-78
2022/12/08 17:10:04;;;;;;;0.85;0.60;;;2.90;92.90;;;;;;6070621;23;20085;-78
2022/12/08 17:12:30;;;;;;;1.67;0.80;;;2.90;93.00;;;;;;6095984;23;20431;-78
2022/12/08 17:14:56;;;;;;;2.00;1.08;;;2.90;93.00;;;;;;6068060;23;20006;-78
2022/12/08 17:17:21;;;;;;;1.42;0.90;;;2.80;93.00;;;;;;6070455;23;19999;-78
2022/12/08 17:19:47;;;;;;;2.10;1.13;;;2.90;93.00;;;;;;6096674;23;20003;-77
2022/12/08 17:22:13;;;;;;;1.45;0.88;;;3.00;93.00;;;;;;6096705;23;20002;-78
2022/12/08 17:24:38;;;;;;;1.23;0.95;;;3.00;92.90;;;;;;6071363;23;20327;-78
2022/12/08 17:27:05;;;;;;;1.33;0.98;;;3.00;92.90;;;;;;6096415;23;20011;-78
2022/12/08 17:29:32;;;;;;;1.85;1.08;;;3.00;92.90;;;;;;6070818;23;20009;-78
2022/12/08 17:31:58;;;;;;;1.42;1.00;;;3.00;92.80;;;;;;6070661;23;20420;-76
2022/12/08 17:34:24;;;;;;;2.22;1.30;;;3.00;92.80;;;;;;6096229;23;20054;-78
2022/12/08 17:36:50;;;;;;;2.58;1.27;;;3.10;92.80;;;;;;6096170;23;20029;-78
2022/12/08 17:39:16;;;;;;;2.95;1.40;;;3.10;92.80;;;;;;6096392;23;20420;-77
2022/12/08 17:41:41;;;;;;;2.00;1.17;;;3.10;92.80;;;;;;6071251;23;20010;-78
2022/12/08 17:44:17;;;;;;;1.65;0.98;;;3.10;92.80;;;;;;6096301;23;20361;-78
2022/12/08 17:46:43;;;;;;;1.73;1.00;;;3.20;92.80;;;;;;6067796;23;20011;-78
2022/12/08 17:49:10;;;;;;;1.80;1.10;;;3.10;92.70;;;;;;6096032;23;20003;-78
2022/12/08 17:51:36;;;;;;;3.00;1.33;;;3.20;92.70;;;;;;6096376;23;19998;-78
2022/12/08 17:54:03;;;;;;;2.53;1.27;;;3.20;92.70;;;;;;6096436;23;20010;-78
2022/12/08 17:56:28;;;;;;;1.67;1.10;;;3.20;92.70;;;;;;6067642;23;20014;-78
2022/12/08 17:58:54;;;;;;;1.25;0.90;;;3.20;92.70;;;;;;6070543;23;20013;-78
2022/12/08 18:01:21;;;;;;;2.45;1.38;;;3.30;92.70;;;;;;6070187;23;20010;-78
2022/12/08 18:03:47;;;;;;;2.20;1.30;;;3.20;92.70;;;;;;6096257;23;20011;-78
2022/12/08 18:06:12;;;;;;;1.33;0.93;;;3.30;92.70;;;;;;6096226;23;20009;-77
2022/12/08 18:08:39;;;;;;;1.45;0.90;;;3.30;92.70;;;;;;6070246;23;20035;-78
2022/12/08 18:11:11;;;;;;;1.52;0.98;;;3.40;92.70;;;;;;6070241;23;20013;-78
2022/12/08 18:13:37;;;;;;;2.25;1.23;;;3.30;92.60;;;;;;6070444;23;20002;-78
2022/12/08 18:16:03;;;;;;;2.58;1.33;;;3.40;92.60;;;;;;6070694;23;20007;-78
2022/12/08 18:18:28;;;;;;;1.80;1.20;;;3.40;92.60;;;;;;6070273;23;20047;-78
2022/12/08 18:20:54;;;;;;;1.60;1.00;;;3.40;92.60;;;;;;6096710;23;20069;-78
2022/12/08 18:23:20;;;;;;;2.28;1.17;;;3.50;92.60;;;;;;6096449;23;20003;-78
2022/12/08 18:25:46;;;;;;;1.73;1.00;;;3.40;92.60;;;;;;6093034;23;20254;-78
2022/12/08 18:28:11;;;;;;;2.47;1.38;;;3.40;92.60;;;;;;6070797;23;19999;-78
2022/12/08 18:30:39;;;;;;;1.95;1.33;;;3.40;92.60;;;;;;6069965;23;20003;-78
2022/12/08 18:33:06;;;;;;;2.83;1.50;;;3.40;92.60;;;;;;6070493;23;20003;-78
2022/12/08 18:35:32;;;;;;;2.35;1.50;;;3.40;92.60;;;;;;6096484;23;20006;-78
2022/12/08 18:37:59;;;;;;;2.95;1.50;;;3.40;92.60;;;;;;6070280;23;20006;-78
2022/12/08 19:06:38;;;;;;;1.77;1.05;;;3.50;92.50;;;;;;6192188;22;20044;-75
2022/12/08 19:10:00;;;;;;;1.70;0.90;;;3.40;92.50;;;;;;6194981;23;20713;-75
2022/12/08 19:16:56;;;;;;;2.13;1.20;;;3.50;92.50;;;;;;6040611;23;20029;-75
2022/12/08 19:19:57;;;;;;;1.40;0.95;;;3.50;92.50;;;;;;6005215;23;20310;-75
2022/12/08 19:22:34;;;;;;;1.65;1.10;;;3.50;92.50;;;;;;6030135;23;20102;-75
2022/12/08 19:25:49;;;;;;;1.60;1.02;;;3.50;92.50;;;;;;6034325;23;20023;-75
2022/12/08 19:28:15;;;;;;;2.30;1.08;;;3.50;92.50;;;;;;5921405;24;20122;-75
2022/12/08 19:30:41;;;;;;;2.05;1.30;;;3.50;92.50;;;;;;5943913;24;20038;-76
2022/12/08 19:33:06;;;;;;;1.70;1.08;;;3.50;92.50;;;;;;5950777;24;20349;-76
2022/12/08 19:35:32;;;;;;;2.65;1.48;;;3.50;92.50;;;;;;5928038;24;20506;-76
2022/12/08 19:37:58;;;;;;;1.52;1.00;;;3.50;92.60;;;;;;5951176;24;20009;-77
2022/12/08 19:45:40;;;;;;;2.10;1.13;;;3.50;92.60;;;;;;5972101;24;20524;-77
2022/12/08 19:48:06;;;;;;;1.55;1.20;;;3.50;92.60;;;;;;5976795;24;20099;-76
2022/12/08 19:50:39;;;;;;;1.88;1.15;;;3.50;92.60;;;;;;5983187;23;20142;-76
2022/12/08 19:53:07;;;;;;;2.22;1.20;;;3.50;92.60;;;;;;6084650;23;20028;-76
2022/12/08 19:55:34;;;;;;;1.85;1.23;;;3.60;92.70;;;;;;6186168;23;19997;-77
2022/12/08 19:58:00;;;;;;;1.98;1.15;;;3.50;92.60;;;;;;6213960;23;20001;-76
2022/12/08 20:00:29;;;;;;;1.83;1.10;;;3.50;92.60;;;;;;6185638;23;20036;-76
2022/12/08 20:02:55;;;;;;;1.90;1.17;;;3.50;92.60;;;;;;6182956;23;20045;-75
2022/12/08 20:05:21;;;;;;;2.53;1.15;;;3.50;92.60;;;;;;6213861;23;20012;-76
2022/12/08 20:07:47;;;;;;;2.58;1.40;;;3.50;92.60;;;;;;6214280;23;20001;-76
2022/12/08 20:10:17;;;;;;;2.08;1.20;;;3.60;92.70;;;;;;6172395;23;20082;-76
2022/12/08 20:12:43;;;;;;;2.90;1.30;;;3.60;92.70;;;;;;6207844;23;20055;-77
2022/12/08 20:15:09;;;;;;;2.13;1.13;;;3.60;92.60;;;;;;6187503;23;20369;-76
2022/12/08 20:17:35;;;;;;;1.45;0.90;;;3.60;92.60;;;;;;6213356;23;20055;-77
2022/12/08 20:20:01;;;;;;;1.30;1.00;;;3.60;92.70;;;;;;6213553;23;20008;-77
2022/12/08 20:22:27;;;;;;;1.73;1.02;;;3.60;92.70;;;;;;6213322;23;20083;-77
2022/12/08 20:24:53;;;;;;;2.13;1.17;;;3.60;92.70;;;;;;6186752;23;20008;-77
2022/12/08 20:27:18;;;;;;;2.50;1.13;;;3.60;92.60;;;;;;6213660;23;20020;-77
2022/12/08 20:29:44;;;;;;;1.48;0.98;;;3.60;92.60;;;;;;6213747;23;19997;-77
2022/12/08 20:32:09;;;;;;;1.63;1.10;;;3.60;92.60;;;;;;6211841;23;19997;-78
2022/12/08 20:34:35;;;;;;;2.65;1.45;;;3.60;92.60;;;;;;6179975;23;20337;-77
2022/12/08 20:37:01;;;;;;;2.83;1.40;;;3.60;92.70;;;;;;6213409;23;20000;-77